Time;durP1;ratioP1;P1;durP2;ratioP2;P2;SDS_P1;SDS_P2;PMS_P1;PMS_P2;Temp;Humidity;BMP_temperature;BMP_pressure;BME280_temperature;BME280_humidity;BME280_pressure;Samples;Min_cycle;Max_cycle;Signal;HPM_P1;HPM_P2
2023/08/14 00:00:41;;;;;;;6.95;5.05;;;15.00;99.90;;;;;;5022676;28;20095;-63
2023/08/14 00:03:08;;;;;;;6.80;4.57;;;14.90;99.90;;;;;;5022111;28;20041;-63
2023/08/14 00:05:35;;;;;;;6.40;4.45;;;14.90;99.90;;;;;;5019695;28;20038;-64
2023/08/14 00:08:02;;;;;;;6.78;4.00;;;14.90;99.90;;;;;;5018258;28;20143;-62
2023/08/14 00:10:29;;;;;;;6.30;3.65;;;14.90;99.90;;;;;;5019933;28;20496;-69
2023/08/14 00:12:56;;;;;;;5.53;3.17;;;14.90;99.90;;;;;;5013131;28;20052;-67
2023/08/14 00:15:23;;;;;;;6.57;3.47;;;14.90;99.90;;;;;;5019887;28;20061;-62
2023/08/14 00:17:51;;;;;;;5.47;3.47;;;14.90;99.90;;;;;;5020903;28;20141;-66
2023/08/14 00:20:18;;;;;;;7.22;3.30;;;14.90;99.90;;;;;;5013734;28;20041;-65
2023/08/14 00:22:45;;;;;;;4.43;3.13;;;14.90;99.90;;;;;;5018771;28;20041;-65
2023/08/14 00:25:12;;;;;;;8.07;3.63;;;14.90;99.90;;;;;;5019025;28;20798;-63
2023/08/14 00:27:39;;;;;;;5.10;3.35;;;15.00;99.90;;;;;;5022869;28;20048;-64
2023/08/14 00:30:06;;;;;;;4.57;3.83;;;15.00;99.90;;;;;;5019855;28;20069;-65
2023/08/14 00:32:33;;;;;;;10.77;5.50;;;15.10;99.90;;;;;;5020563;28;20207;-67
2023/08/14 00:35:00;;;;;;;8.10;3.33;;;15.10;99.90;;;;;;5019947;28;20133;-63
2023/08/14 00:37:43;;;;;;;6.07;3.20;;;15.10;99.90;;;;;;5019739;28;20052;-64
2023/08/14 00:40:11;;;;;;;4.78;2.92;;;15.00;99.90;;;;;;5036427;28;20531;-65
2023/08/14 00:42:39;;;;;;;3.42;2.92;;;15.10;99.90;;;;;;5036374;28;20046;-65
2023/08/14 00:45:07;;;;;;;3.30;2.97;;;15.00;99.90;;;;;;5021094;28;20467;-68
2023/08/14 00:47:38;;;;;;;8.63;3.38;;;15.00;99.90;;;;;;5019364;28;20061;-66
2023/08/14 00:50:07;;;;;;;5.18;3.70;;;14.90;99.90;;;;;;5019768;28;20048;-66
2023/08/14 00:52:37;;;;;;;5.30;2.88;;;14.90;99.90;;;;;;5017101;28;20037;-66
2023/08/14 00:55:08;;;;;;;5.05;3.72;;;14.90;99.90;;;;;;5034070;28;20099;-69
2023/08/14 00:57:35;;;;;;;8.88;3.58;;;14.90;99.90;;;;;;5020880;28;20481;-62
2023/08/14 01:00:05;;;;;;;5.13;3.13;;;14.80;99.90;;;;;;5021374;28;20057;-66
2023/08/14 01:02:33;;;;;;;12.15;4.22;;;14.80;99.90;;;;;;5019025;28;20044;-66
2023/08/14 01:05:01;;;;;;;5.38;3.45;;;14.80;99.90;;;;;;5021060;28;20041;-63
2023/08/14 01:07:29;;;;;;;8.57;4.65;;;14.70;99.90;;;;;;5021869;28;20119;-63
2023/08/14 01:09:57;;;;;;;6.20;3.63;;;14.70;99.90;;;;;;5018774;28;20150;-64
2023/08/14 01:12:45;;;;;;;7.00;3.67;;;14.70;99.90;;;;;;5018316;28;20049;-65
2023/08/14 01:15:18;;;;;;;5.15;3.40;;;14.70;99.90;;;;;;5017065;28;20052;-64
2023/08/14 01:18:00;;;;;;;8.57;3.40;;;14.70;99.90;;;;;;5018437;28;20029;-64
2023/08/14 01:20:29;;;;;;;7.07;3.00;;;14.80;99.90;;;;;;5021385;28;20128;-68
2023/08/14 01:23:12;;;;;;;6.63;4.13;;;14.80;99.90;;;;;;5024392;28;20095;-62
2023/08/14 01:25:40;;;;;;;4.60;3.60;;;14.70;99.90;;;;;;5022798;28;20041;-63
2023/08/14 01:28:08;;;;;;;8.45;4.00;;;14.70;99.90;;;;;;5023605;28;20049;-62
2023/08/14 01:30:36;;;;;;;4.78;3.33;;;14.70;99.90;;;;;;5027091;28;20037;-66
2023/08/14 01:33:03;;;;;;;4.35;3.17;;;14.70;99.90;;;;;;5022701;28;20451;-64
2023/08/14 01:35:40;;;;;;;5.30;3.22;;;14.60;99.90;;;;;;5019030;28;20052;-66
2023/08/14 01:38:24;;;;;;;5.97;3.45;;;14.60;99.90;;;;;;5022597;28;20061;-65
2023/08/14 01:41:15;;;;;;;5.45;2.88;;;14.60;99.90;;;;;;5017374;28;20053;-65
2023/08/14 01:43:51;;;;;;;7.50;4.05;;;14.60;99.90;;;;;;5036211;28;20053;-67
2023/08/14 01:46:19;;;;;;;9.30;3.08;;;14.60;99.90;;;;;;5023329;28;20041;-65
2023/08/14 01:48:48;;;;;;;9.05;4.43;;;14.50;99.90;;;;;;5018855;28;20046;-67
2023/08/14 01:51:17;;;;;;;3.58;2.95;;;14.50;99.90;;;;;;5021556;28;20064;-63
2023/08/14 01:53:46;;;;;;;6.60;3.20;;;14.50;99.90;;;;;;5022895;28;20037;-64
2023/08/14 01:56:14;;;;;;;6.87;3.47;;;14.40;99.90;;;;;;5017520;28;20041;-63
2023/08/14 01:58:41;;;;;;;7.32;4.65;;;14.40;99.90;;;;;;5035825;28;20053;-64
2023/08/14 02:01:08;;;;;;;3.40;2.90;;;14.40;99.90;;;;;;5021760;28;20061;-63
2023/08/14 02:03:35;;;;;;;6.07;3.53;;;14.30;99.90;;;;;;5023886;28;20056;-63
2023/08/14 02:06:02;;;;;;;4.70;2.78;;;14.30;99.90;;;;;;5034557;28;20073;-64
2023/08/14 02:08:29;;;;;;;6.82;4.20;;;14.20;99.90;;;;;;5020034;28;20063;-62
2023/08/14 02:10:56;;;;;;;6.03;3.30;;;14.20;99.90;;;;;;5035037;28;20057;-64
2023/08/14 02:13:23;;;;;;;5.43;3.50;;;14.20;99.90;;;;;;5019696;28;20054;-62
2023/08/14 02:15:51;;;;;;;7.60;3.30;;;14.20;99.90;;;;;;5019622;28;20045;-63
2023/08/14 02:18:18;;;;;;;7.57;3.55;;;14.10;99.90;;;;;;5022532;28;20059;-66
2023/08/14 02:20:46;;;;;;;6.53;3.90;;;14.10;99.90;;;;;;5037098;28;20037;-64
2023/08/14 02:23:13;;;;;;;5.30;4.22;;;14.00;99.90;;;;;;5020747;28;20112;-65
2023/08/14 02:25:41;;;;;;;6.30;3.40;;;14.10;99.90;;;;;;5025769;28;20064;-66
2023/08/14 02:28:09;;;;;;;6.93;3.38;;;14.10;99.90;;;;;;5020705;28;20140;-64
2023/08/14 02:30:37;;;;;;;7.78;4.47;;;14.00;99.90;;;;;;5021800;28;20115;-63
2023/08/14 02:33:05;;;;;;;4.13;3.53;;;14.00;99.90;;;;;;5020065;28;20760;-68
2023/08/14 02:35:32;;;;;;;5.00;3.10;;;13.90;99.90;;;;;;5027406;28;20100;-62
2023/08/14 02:37:59;;;;;;;6.93;3.90;;;13.90;99.90;;;;;;5021959;28;20060;-62
2023/08/14 02:40:26;;;;;;;7.78;3.95;;;13.90;99.90;;;;;;5021416;28;20087;-64
2023/08/14 02:42:59;;;;;;;9.48;3.55;;;13.80;99.90;;;;;;5022295;28;20033;-62
2023/08/14 02:45:25;;;;;;;5.70;3.60;;;13.90;99.90;;;;;;5025804;28;20134;-64
2023/08/14 02:47:53;;;;;;;10.07;4.20;;;13.80;99.90;;;;;;5024191;28;20061;-66
2023/08/14 02:50:21;;;;;;;5.55;3.22;;;13.80;99.90;;;;;;5023255;28;20048;-63
2023/08/14 02:52:49;;;;;;;3.80;3.38;;;13.70;99.90;;;;;;5021286;28;20124;-66
2023/08/14 02:55:16;;;;;;;3.58;2.95;;;13.70;99.90;;;;;;5032925;28;20103;-65
2023/08/14 02:57:43;;;;;;;5.28;4.78;;;13.70;99.90;;;;;;5022053;28;20076;-64
2023/08/14 03:00:10;;;;;;;6.18;3.47;;;13.70;99.90;;;;;;5019516;28;20044;-66
2023/08/14 03:02:37;;;;;;;4.03;3.40;;;13.70;99.90;;;;;;5018922;28;20161;-66
2023/08/14 03:05:04;;;;;;;4.03;3.53;;;13.70;99.90;;;;;;5023489;28;20041;-67
2023/08/14 03:07:31;;;;;;;4.50;3.53;;;13.60;99.90;;;;;;5022997;28;20179;-67
2023/08/14 03:09:58;;;;;;;4.18;3.83;;;13.60;99.90;;;;;;5023820;28;20056;-66
2023/08/14 03:12:25;;;;;;;4.93;3.42;;;13.60;99.90;;;;;;5023149;28;20041;-66
2023/08/14 03:14:52;;;;;;;3.22;2.80;;;13.60;99.90;;;;;;5022856;28;20379;-63
2023/08/14 03:17:19;;;;;;;8.98;4.50;;;13.60;99.90;;;;;;5024917;28;20126;-65
2023/08/14 03:19:46;;;;;;;5.53;3.40;;;13.60;99.90;;;;;;5012312;28;20111;-64
2023/08/14 03:22:13;;;;;;;3.33;3.03;;;13.50;99.90;;;;;;5019970;28;20152;-64
2023/08/14 03:24:41;;;;;;;4.10;2.92;;;13.50;99.90;;;;;;5021886;28;20037;-62
2023/08/14 03:27:08;;;;;;;8.55;3.38;;;13.50;99.90;;;;;;5018900;28;20046;-63
2023/08/14 03:29:36;;;;;;;5.97;3.58;;;13.50;99.90;;;;;;5021194;28;20052;-66
2023/08/14 03:32:03;;;;;;;5.50;3.13;;;13.50;99.90;;;;;;5021187;28;20053;-64
2023/08/14 03:34:30;;;;;;;9.82;4.85;;;13.50;99.90;;;;;;5021375;28;20680;-65
2023/08/14 03:36:57;;;;;;;8.90;4.10;;;13.50;99.90;;;;;;5022182;28;20671;-64
2023/08/14 03:39:24;;;;;;;4.88;3.78;;;13.50;99.90;;;;;;5019474;28;20053;-65
2023/08/14 03:41:51;;;;;;;5.20;3.30;;;13.50;99.90;;;;;;5033495;28;20045;-64
2023/08/14 03:44:18;;;;;;;7.57;3.53;;;13.50;99.90;;;;;;5017887;28;20064;-66
2023/08/14 03:46:45;;;;;;;8.27;4.57;;;13.50;99.90;;;;;;5038135;28;20056;-67
2023/08/14 03:49:15;;;;;;;4.90;4.30;;;13.50;99.90;;;;;;5023782;28;20898;-66
2023/08/14 03:51:41;;;;;;;5.20;4.05;;;13.50;99.90;;;;;;5019664;28;20065;-65
2023/08/14 03:54:09;;;;;;;10.77;4.88;;;13.50;99.90;;;;;;5021966;28;20128;-65
2023/08/14 03:56:36;;;;;;;5.85;3.90;;;13.50;99.90;;;;;;5016883;28;20057;-63
2023/08/14 03:59:03;;;;;;;7.68;4.25;;;13.50;99.90;;;;;;5023455;28;20467;-66
2023/08/14 04:01:30;;;;;;;5.55;4.63;;;13.60;99.90;;;;;;5020649;28;20056;-63
2023/08/14 04:03:57;;;;;;;6.68;4.35;;;13.60;99.90;;;;;;5023415;28;20063;-62
2023/08/14 04:06:26;;;;;;;6.65;3.47;;;13.60;99.90;;;;;;5036773;28;20049;-68
2023/08/14 04:08:53;;;;;;;14.20;4.90;;;13.70;99.90;;;;;;5018093;28;20100;-62
2023/08/14 04:11:20;;;;;;;5.10;4.13;;;13.70;99.90;;;;;;5021116;28;20049;-64
2023/08/14 04:13:47;;;;;;;4.10;3.67;;;13.70;99.90;;;;;;5022965;28;20055;-67
2023/08/14 04:16:14;;;;;;;4.18;3.75;;;13.70;99.90;;;;;;5036615;28;20846;-67
2023/08/14 04:18:41;;;;;;;5.82;4.32;;;13.70;99.90;;;;;;5024111;28;20033;-63
2023/08/14 04:21:08;;;;;;;5.35;4.72;;;13.80;99.90;;;;;;5019524;28;20576;-65
2023/08/14 04:23:35;;;;;;;7.50;5.30;;;13.80;99.90;;;;;;5017119;28;20187;-61
2023/08/14 04:26:02;;;;;;;5.95;3.45;;;13.90;99.90;;;;;;5024930;28;20045;-63
2023/08/14 04:28:29;;;;;;;11.63;4.97;;;13.90;99.90;;;;;;5020543;28;20506;-64
2023/08/14 04:30:56;;;;;;;9.02;4.72;;;13.90;99.90;;;;;;5020549;28;20052;-67
2023/08/14 04:33:23;;;;;;;11.88;4.20;;;14.00;99.90;;;;;;5017280;28;20042;-66
2023/08/14 04:35:50;;;;;;;7.82;4.75;;;14.10;99.90;;;;;;5018069;28;20053;-65
2023/08/14 04:38:17;;;;;;;9.30;5.28;;;14.20;99.90;;;;;;5019367;28;20052;-64
2023/08/14 04:40:46;;;;;;;12.40;5.83;;;14.40;99.90;;;;;;5033866;28;20203;-64
2023/08/14 04:43:14;;;;;;;9.50;5.18;;;14.60;99.90;;;;;;5021094;28;20290;-67
2023/08/14 04:45:41;;;;;;;9.88;4.63;;;14.70;99.90;;;;;;5022151;28;20037;-61
2023/08/14 04:48:08;;;;;;;8.70;4.38;;;14.90;99.90;;;;;;5020926;28;20158;-65
2023/08/14 04:50:35;;;;;;;27.02;5.65;;;15.00;99.90;;;;;;5023248;28;20037;-66
2023/08/14 04:53:03;;;;;;;6.53;4.60;;;15.20;99.90;;;;;;5036575;28;20076;-67
2023/08/14 04:55:33;;;;;;;10.52;5.57;;;15.30;99.90;;;;;;5040806;28;20045;-62
2023/08/14 04:58:00;;;;;;;11.32;4.15;;;15.50;99.90;;;;;;5022979;28;20041;-66
2023/08/14 05:00:27;;;;;;;18.05;6.15;;;15.60;99.90;;;;;;5041221;28;20076;-66
2023/08/14 05:02:57;;;;;;;9.52;4.65;;;15.70;99.90;;;;;;5023317;28;20045;-66
2023/08/14 05:05:23;;;;;;;9.15;4.38;;;15.80;99.90;;;;;;5024351;28;20130;-63
2023/08/14 05:07:50;;;;;;;8.45;3.80;;;15.90;99.90;;;;;;5023058;28;20056;-63
2023/08/14 05:10:17;;;;;;;10.65;4.45;;;16.00;99.90;;;;;;5022454;28;20623;-63
2023/08/14 05:12:44;;;;;;;9.38;3.45;;;16.00;99.90;;;;;;5024382;28;20041;-69
2023/08/14 05:15:11;;;;;;;9.60;4.05;;;16.10;99.90;;;;;;5040611;28;20057;-64
2023/08/14 05:17:39;;;;;;;7.88;3.63;;;16.10;99.90;;;;;;5022349;28;20081;-63
2023/08/14 05:20:06;;;;;;;7.00;3.72;;;16.10;99.90;;;;;;5018647;28;20144;-67
2023/08/14 05:22:33;;;;;;;7.28;4.65;;;16.10;99.90;;;;;;5024765;28;20045;-65
2023/08/14 05:25:00;;;;;;;7.35;4.70;;;16.20;99.90;;;;;;5021685;28;20554;-64
2023/08/14 05:27:27;;;;;;;12.52;5.53;;;16.20;99.90;;;;;;5024394;28;20099;-62
2023/08/14 05:29:54;;;;;;;15.50;4.18;;;16.30;99.90;;;;;;5024167;28;20491;-67
2023/08/14 05:32:21;;;;;;;12.60;3.95;;;16.30;99.90;;;;;;5025042;28;20139;-62
2023/08/14 05:34:48;;;;;;;6.15;3.17;;;16.30;99.90;;;;;;5025482;28;20049;-66
2023/08/14 05:37:14;;;;;;;12.10;3.95;;;16.40;99.90;;;;;;5026350;28;20594;-64
2023/08/14 05:39:41;;;;;;;10.02;3.75;;;16.50;99.90;;;;;;5023999;28;20178;-65
2023/08/14 05:42:08;;;;;;;7.80;3.60;;;16.60;99.90;;;;;;5020652;28;20053;-66
2023/08/14 05:44:35;;;;;;;7.15;4.57;;;16.60;99.90;;;;;;5020886;28;20533;-63
2023/08/14 05:47:02;;;;;;;8.18;4.20;;;16.70;99.90;;;;;;5026633;28;20103;-66
2023/08/14 05:49:29;;;;;;;10.13;3.97;;;16.80;99.90;;;;;;5022098;28;20037;-65
2023/08/14 05:51:56;;;;;;;10.90;4.63;;;16.80;99.90;;;;;;5023870;28;20399;-65
2023/08/14 05:54:23;;;;;;;9.02;3.40;;;16.90;99.90;;;;;;5022295;28;20122;-63
2023/08/14 05:56:50;;;;;;;9.20;4.40;;;16.90;99.90;;;;;;5025464;28;20698;-65
2023/08/14 05:59:17;;;;;;;7.30;4.32;;;17.00;99.90;;;;;;5024324;28;20037;-65
2023/08/14 06:01:45;;;;;;;11.80;4.35;;;17.10;99.90;;;;;;5024458;28;20046;-65
2023/08/14 06:04:13;;;;;;;7.20;3.03;;;17.20;99.90;;;;;;5018302;28;20042;-67
2023/08/14 06:06:40;;;;;;;14.90;4.57;;;17.20;99.90;;;;;;5024427;28;20029;-63
2023/08/14 06:09:07;;;;;;;9.02;3.58;;;17.30;99.90;;;;;;5021931;28;20104;-62
2023/08/14 06:11:34;;;;;;;12.63;3.28;;;17.40;99.90;;;;;;5023379;28;20107;-64
2023/08/14 06:14:04;;;;;;;15.02;5.13;;;17.40;99.90;;;;;;5023606;28;20081;-66
2023/08/14 06:16:31;;;;;;;8.05;4.40;;;17.50;99.90;;;;;;5024207;28;20068;-64
2023/08/14 06:18:58;;;;;;;7.97;3.50;;;17.60;99.90;;;;;;5025008;28;20072;-63
2023/08/14 06:21:25;;;;;;;6.80;3.03;;;17.60;99.90;;;;;;5021316;28;20578;-64
2023/08/14 06:23:51;;;;;;;9.77;3.33;;;17.70;99.90;;;;;;5021401;28;20193;-62
2023/08/14 06:26:19;;;;;;;9.63;3.75;;;17.70;99.90;;;;;;5018959;28;20743;-63
2023/08/14 06:28:46;;;;;;;9.10;3.67;;;17.70;99.90;;;;;;5019957;28;20083;-63
2023/08/14 06:31:13;;;;;;;7.45;3.90;;;17.70;99.90;;;;;;5022934;28;20781;-63
2023/08/14 06:33:40;;;;;;;14.48;4.40;;;17.70;99.90;;;;;;5021853;28;20041;-66
2023/08/14 06:36:07;;;;;;;6.72;4.00;;;17.70;99.90;;;;;;5021282;28;20088;-65
2023/08/14 06:38:36;;;;;;;9.27;4.43;;;17.70;99.90;;;;;;5018608;28;20506;-63
2023/08/14 06:41:02;;;;;;;9.00;4.07;;;17.80;99.90;;;;;;5023234;28;20124;-63
2023/08/14 06:43:29;;;;;;;4.47;3.38;;;17.80;99.90;;;;;;5022462;28;20441;-67
2023/08/14 06:45:56;;;;;;;4.88;3.72;;;18.00;99.90;;;;;;5022152;28;20040;-68
2023/08/14 06:48:23;;;;;;;7.25;4.32;;;18.00;99.90;;;;;;5021544;28;20111;-63
2023/08/14 06:50:52;;;;;;;9.00;4.28;;;18.10;99.90;;;;;;5022241;28;20525;-65
2023/08/14 06:53:20;;;;;;;9.70;4.78;;;18.10;99.90;;;;;;5020545;28;20250;-63
2023/08/14 06:55:47;;;;;;;13.45;3.05;;;18.20;99.90;;;;;;5021627;28;20136;-67
2023/08/14 06:58:14;;;;;;;9.43;3.72;;;18.20;99.90;;;;;;5022347;28;20052;-64
2023/08/14 07:00:41;;;;;;;12.00;3.47;;;18.20;99.90;;;;;;5022078;28;20045;-66
2023/08/14 07:03:08;;;;;;;8.95;3.28;;;18.20;99.90;;;;;;5021822;28;20049;-68
2023/08/14 07:05:35;;;;;;;8.93;3.53;;;18.20;99.90;;;;;;5020801;28;20049;-65
2023/08/14 07:08:02;;;;;;;6.38;3.05;;;18.40;99.90;;;;;;5023191;28;20164;-63
2023/08/14 07:10:29;;;;;;;11.45;6.07;;;18.50;99.90;;;;;;5021543;28;20042;-63
2023/08/14 07:12:56;;;;;;;4.18;2.88;;;18.50;99.90;;;;;;5022164;28;20042;-65
2023/08/14 07:15:24;;;;;;;8.93;3.90;;;18.60;99.90;;;;;;5020117;28;20041;-66
2023/08/14 07:17:52;;;;;;;4.88;2.60;;;18.60;99.90;;;;;;5020131;28;20223;-63
2023/08/14 07:20:19;;;;;;;7.13;2.83;;;18.70;99.90;;;;;;5020856;28;20154;-66
2023/08/14 07:22:54;;;;;;;9.23;3.40;;;18.80;99.90;;;;;;5019420;28;20073;-69
2023/08/14 07:25:21;;;;;;;6.20;3.50;;;18.90;99.90;;;;;;5014632;28;20050;-64
2023/08/14 07:27:48;;;;;;;6.53;3.20;;;18.90;99.90;;;;;;5016894;28;20045;-62
2023/08/14 07:30:15;;;;;;;11.57;3.33;;;19.00;99.90;;;;;;5018917;28;20038;-64
2023/08/14 07:32:42;;;;;;;6.63;2.67;;;19.10;99.90;;;;;;5019891;28;20045;-63
2023/08/14 07:35:13;;;;;;;6.53;3.00;;;19.10;99.90;;;;;;5020937;28;20053;-64
2023/08/14 07:37:40;;;;;;;4.32;2.35;;;19.20;99.90;;;;;;5020703;28;20041;-64
2023/08/14 07:40:09;;;;;;;6.13;3.10;;;19.30;99.90;;;;;;5021206;28;20220;-63
2023/08/14 07:42:35;;;;;;;7.28;2.95;;;19.40;99.90;;;;;;5020188;28;20051;-67
2023/08/14 07:45:03;;;;;;;6.22;3.50;;;19.50;99.90;;;;;;5019406;28;20076;-68
2023/08/14 07:47:30;;;;;;;7.68;3.38;;;19.60;99.90;;;;;;5022592;28;20029;-66
2023/08/14 07:49:57;;;;;;;9.02;3.00;;;19.70;99.90;;;;;;5022415;28;20057;-66
2023/08/14 07:52:25;;;;;;;6.80;2.28;;;19.80;99.90;;;;;;5021858;28;20049;-67
2023/08/14 07:54:52;;;;;;;3.95;2.50;;;19.90;99.90;;;;;;5018812;28;20091;-64
2023/08/14 07:57:19;;;;;;;5.18;2.38;;;19.90;99.90;;;;;;5019893;28;20038;-66
2023/08/14 07:59:46;;;;;;;5.72;2.92;;;20.00;99.90;;;;;;5022167;28;20049;-66
2023/08/14 08:02:13;;;;;;;3.03;2.10;;;20.00;99.90;;;;;;5022196;28;20076;-64
2023/08/14 08:04:40;;;;;;;8.48;3.42;;;20.10;99.90;;;;;;5022872;28;20087;-64
2023/08/14 08:07:07;;;;;;;9.63;2.50;;;20.30;99.90;;;;;;5020512;28;20122;-65
2023/08/14 08:09:40;;;;;;;3.75;2.03;;;20.40;99.90;;;;;;5020977;28;20060;-64
2023/08/14 08:12:07;;;;;;;6.32;2.50;;;20.50;99.90;;;;;;5016335;28;20041;-69
2023/08/14 08:14:35;;;;;;;8.10;2.75;;;20.50;99.90;;;;;;5018651;28;20045;-62
2023/08/14 08:17:51;;;;;;;6.78;2.47;;;20.40;99.90;;;;;;5011809;28;20088;-67
2023/08/14 08:21:07;;;;;;;7.40;3.38;;;20.20;99.90;;;;;;5008036;28;20111;-65
2023/08/14 08:24:23;;;;;;;7.97;2.80;;;20.20;99.90;;;;;;5008594;28;20069;-67
2023/08/14 08:27:39;;;;;;;8.68;3.20;;;20.10;99.90;;;;;;5014316;28;20127;-66
2023/08/14 08:30:55;;;;;;;6.60;3.40;;;20.10;99.90;;;;;;5012409;28;20091;-68
2023/08/14 08:34:12;;;;;;;4.50;3.00;;;20.20;99.90;;;;;;5009811;28;20151;-67
2023/08/14 08:37:28;;;;;;;10.68;3.58;;;20.10;99.90;;;;;;5011101;28;20196;-66
2023/08/14 08:40:48;;;;;;;13.82;4.13;;;19.80;99.90;;;;;;5011211;28;20155;-66
2023/08/14 08:44:12;;;;;;;7.57;3.63;;;19.50;99.90;;;;;;5012138;28;20710;-69
2023/08/14 08:47:29;;;;;;;5.15;2.70;;;19.40;99.90;;;;;;5014070;28;20041;-66
2023/08/14 08:50:51;;;;;;;11.18;3.67;;;19.40;99.90;;;;;;5016781;28;20087;-66
2023/08/14 08:54:07;;;;;;;7.53;4.30;;;19.50;99.90;;;;;;5009534;28;20064;-65
2023/08/14 08:57:23;;;;;;;7.80;3.00;;;19.70;99.90;;;;;;5010583;28;20076;-67
2023/08/14 09:00:39;;;;;;;7.60;3.00;;;19.90;99.90;;;;;;5009372;28;20125;-64
2023/08/14 09:03:56;;;;;;;6.18;2.70;;;20.00;99.90;;;;;;5016804;28;20119;-65
2023/08/14 09:07:14;;;;;;;5.80;2.67;;;20.10;99.90;;;;;;5012306;28;20060;-67
2023/08/14 11:11:48;;;;;;;3.20;2.13;;;21.60;99.90;;;;;;4908408;23;20077;-64
2023/08/14 11:14:15;;;;;;;6.22;2.13;;;21.70;99.90;;;;;;4826641;29;20407;-74
2023/08/14 11:16:47;;;;;;;12.25;2.90;;;21.70;99.90;;;;;;4825592;29;20747;-66
2023/08/14 11:19:17;;;;;;;8.70;3.28;;;21.70;99.90;;;;;;4824238;29;20148;-66
2023/08/14 11:21:48;;;;;;;5.78;2.20;;;21.70;99.90;;;;;;4826808;29;20233;-64
2023/08/14 11:24:15;;;;;;;7.55;3.60;;;21.70;99.90;;;;;;4828283;29;20559;-67
2023/08/14 11:26:42;;;;;;;4.68;2.83;;;21.70;99.90;;;;;;4828403;29;20042;-67
2023/08/14 11:29:09;;;;;;;19.42;2.78;;;21.70;99.90;;;;;;4822471;29;20150;-66
2023/08/14 11:31:36;;;;;;;7.70;2.75;;;21.80;99.90;;;;;;4822961;29;20078;-70
2023/08/14 11:34:15;;;;;;;9.15;2.70;;;21.80;99.90;;;;;;4820713;29;20137;-73
2023/08/14 11:36:53;;;;;;;12.45;3.95;;;21.90;99.90;;;;;;4829227;29;20126;-74
2023/08/14 11:39:34;;;;;;;7.32;2.88;;;21.90;99.90;;;;;;4820998;29;20049;-71
2023/08/14 11:42:03;;;;;;;5.93;2.92;;;21.90;99.90;;;;;;4820894;29;20050;-64
2023/08/14 11:44:30;;;;;;;5.68;2.47;;;21.90;99.90;;;;;;4828747;29;20050;-73
2023/08/14 11:46:57;;;;;;;12.80;6.13;;;22.10;99.90;;;;;;4825719;29;20065;-69
2023/08/14 11:49:24;;;;;;;5.88;2.40;;;21.80;99.90;;;;;;4827918;29;20054;-67
2023/08/14 11:51:53;;;;;;;9.57;3.00;;;21.80;99.90;;;;;;4824260;29;20038;-65
2023/08/14 11:54:21;;;;;;;5.03;2.30;;;21.70;99.90;;;;;;4829016;29;20121;-66
2023/08/14 11:56:49;;;;;;;4.45;2.78;;;21.70;99.90;;;;;;4823939;29;20046;-67
2023/08/14 11:59:17;;;;;;;6.40;2.72;;;21.70;99.90;;;;;;4824418;29;20056;-64
2023/08/14 12:01:44;;;;;;;7.65;2.88;;;21.70;99.90;;;;;;4823312;29;20130;-67
2023/08/14 12:04:11;;;;;;;6.28;3.92;;;21.70;99.90;;;;;;4826154;29;20046;-67
2023/08/14 12:06:38;;;;;;;4.85;2.60;;;21.60;99.90;;;;;;4824108;29;20081;-65
2023/08/14 12:09:10;;;;;;;7.68;3.97;;;21.50;99.90;;;;;;4827284;29;20818;-65
2023/08/14 12:11:38;;;;;;;3.45;1.75;;;21.60;99.90;;;;;;4825729;29;20181;-67
2023/08/14 12:14:06;;;;;;;5.40;2.33;;;21.80;99.90;;;;;;4820424;29;20492;-73
2023/08/14 12:16:38;;;;;;;4.70;2.90;;;22.10;99.90;;;;;;4829945;29;20050;-67
2023/08/14 12:19:09;;;;;;;3.95;2.28;;;22.20;99.90;;;;;;4826194;29;20133;-71
2023/08/14 12:21:37;;;;;;;4.80;2.00;;;22.30;99.90;;;;;;4822371;29;20580;-70
2023/08/14 12:24:04;;;;;;;6.60;3.35;;;22.40;99.90;;;;;;4827050;29;20134;-64
2023/08/14 12:26:40;;;;;;;8.45;2.85;;;22.50;99.90;;;;;;4823795;29;20046;-63
2023/08/14 12:29:08;;;;;;;7.57;3.53;;;22.70;99.90;;;;;;4825498;29;20740;-74
2023/08/14 12:31:35;;;;;;;6.75;2.20;;;22.70;99.90;;;;;;4822322;29;20050;-65
2023/08/14 12:34:03;;;;;;;7.45;2.92;;;22.80;99.90;;;;;;4827788;29;20041;-63
2023/08/14 12:36:33;;;;;;;5.22;2.70;;;22.90;99.90;;;;;;4823092;29;20045;-71
2023/08/14 12:39:00;;;;;;;5.68;2.13;;;22.90;99.90;;;;;;4825061;29;20066;-65
2023/08/14 12:41:27;;;;;;;5.80;1.80;;;23.00;99.90;;;;;;4823355;29;20094;-73
2023/08/14 12:43:54;;;;;;;9.13;2.05;;;22.80;99.90;;;;;;4827647;29;20221;-66
2023/08/14 12:46:21;;;;;;;4.60;1.92;;;22.90;99.90;;;;;;4826821;29;20038;-63
2023/08/14 12:48:48;;;;;;;4.22;2.25;;;22.90;99.90;;;;;;4825306;29;20407;-71
2023/08/14 12:51:15;;;;;;;9.18;2.30;;;22.90;99.90;;;;;;4823456;29;20054;-66
2023/08/14 12:53:42;;;;;;;5.95;2.05;;;23.00;99.90;;;;;;4824376;29;20106;-67
2023/08/14 12:56:09;;;;;;;4.72;1.90;;;23.10;99.90;;;;;;4823757;29;20069;-69
2023/08/14 12:58:35;;;;;;;3.35;1.63;;;23.20;99.90;;;;;;4821209;29;20232;-69
2023/08/14 13:01:02;;;;;;;2.70;1.95;;;23.10;99.90;;;;;;4826624;29;20058;-66
2023/08/14 13:03:31;;;;;;;4.63;1.77;;;23.00;99.90;;;;;;4818764;29;20048;-67
2023/08/14 13:06:01;;;;;;;6.25;2.85;;;23.10;99.90;;;;;;4826691;29;20045;-68
2023/08/14 13:08:28;;;;;;;4.65;1.30;;;23.10;99.90;;;;;;4822074;29;20118;-66
2023/08/14 13:10:55;;;;;;;4.20;1.98;;;23.00;99.90;;;;;;4823737;29;20484;-66
2023/08/14 13:13:26;;;;;;;2.47;1.88;;;23.20;99.90;;;;;;4824557;29;20103;-66
2023/08/14 13:15:55;;;;;;;5.47;2.17;;;23.30;99.90;;;;;;4829445;29;20042;-63
2023/08/14 13:18:22;;;;;;;3.85;2.50;;;23.40;99.90;;;;;;4829751;29;20046;-71
2023/08/14 13:20:50;;;;;;;7.10;2.30;;;23.40;99.90;;;;;;4824144;29;20126;-63
2023/08/14 13:23:17;;;;;;;5.22;2.53;;;23.50;99.90;;;;;;4826124;29;20131;-64
2023/08/14 13:25:44;;;;;;;2.85;1.80;;;23.50;99.90;;;;;;4828254;29;20054;-68
2023/08/14 13:28:12;;;;;;;3.83;2.08;;;23.60;99.90;;;;;;4827723;29;20088;-72
2023/08/14 13:30:38;;;;;;;3.22;2.03;;;23.60;99.90;;;;;;4830237;29;20162;-67
2023/08/14 13:33:11;;;;;;;5.40;1.83;;;23.90;99.90;;;;;;4827170;29;20068;-69
2023/08/14 13:35:38;;;;;;;4.43;1.80;;;23.90;99.90;;;;;;4828857;29;20077;-65
2023/08/14 13:38:06;;;;;;;2.85;1.50;;;24.00;99.90;;;;;;4827747;29;20086;-72
2023/08/14 13:40:33;;;;;;;5.82;2.00;;;24.30;99.90;;;;;;4830627;29;20404;-71
2023/08/14 13:43:00;;;;;;;4.38;2.15;;;24.30;99.90;;;;;;4828850;29;20476;-63
2023/08/14 13:45:29;;;;;;;3.05;1.13;;;24.40;99.90;;;;;;4829486;29;20414;-69
2023/08/14 13:47:57;;;;;;;1.98;1.45;;;24.50;99.90;;;;;;4826426;29;20060;-67
2023/08/14 13:50:29;;;;;;;4.95;1.35;;;24.40;99.90;;;;;;4827668;29;20038;-64
2023/08/14 13:53:00;;;;;;;2.70;1.25;;;24.40;99.90;;;;;;4826925;29;20076;-73
2023/08/14 13:55:29;;;;;;;2.88;1.10;;;24.50;99.90;;;;;;4830319;29;20410;-72
2023/08/14 13:57:56;;;;;;;2.58;1.42;;;24.60;99.90;;;;;;4815532;29;20107;-69
2023/08/14 14:00:24;;;;;;;6.75;1.70;;;24.60;99.90;;;;;;4826385;29;20042;-71
2023/08/14 14:02:56;;;;;;;3.03;1.10;;;24.90;99.90;;;;;;4825360;29;20046;-69
2023/08/14 14:05:24;;;;;;;3.35;1.90;;;25.20;99.90;;;;;;4827341;29;20477;-67
2023/08/14 14:07:51;;;;;;;2.15;1.60;;;25.30;99.90;;;;;;4827573;29;20048;-65
2023/08/14 14:10:26;;;;;;;3.63;1.40;;;25.40;99.90;;;;;;4832339;29;20062;-70
2023/08/14 14:12:53;;;;;;;6.13;1.60;;;25.30;99.90;;;;;;4826153;29;20137;-75
2023/08/14 14:15:23;;;;;;;1.45;1.00;;;25.40;99.90;;;;;;4824841;29;20041;-65
2023/08/14 14:17:50;;;;;;;4.65;1.17;;;25.20;99.90;;;;;;4826426;29;20073;-67
2023/08/14 14:20:17;;;;;;;4.88;1.67;;;25.40;99.90;;;;;;4825512;29;20038;-64
2023/08/14 14:22:44;;;;;;;2.45;1.27;;;25.50;99.90;;;;;;4827630;29;20076;-64
2023/08/14 14:25:11;;;;;;;4.00;1.45;;;25.60;99.90;;;;;;4830198;29;20426;-71
2023/08/14 14:27:38;;;;;;;1.08;1.08;;;25.70;99.90;;;;;;4822991;29;20404;-67
2023/08/14 14:30:06;;;;;;;4.05;1.65;;;25.70;99.90;;;;;;4825795;29;20058;-67
2023/08/14 14:32:33;;;;;;;3.67;1.85;;;25.90;99.90;;;;;;4824907;29;20062;-71
2023/08/14 14:35:00;;;;;;;1.38;1.00;;;25.90;99.90;;;;;;4825130;29;20121;-66
2023/08/14 14:37:27;;;;;;;2.45;1.33;;;25.90;99.90;;;;;;4828399;29;20082;-66
2023/08/14 14:39:54;;;;;;;2.72;1.95;;;26.10;99.90;;;;;;4824791;29;20057;-69
2023/08/14 14:42:24;;;;;;;3.20;1.23;;;26.00;99.90;;;;;;4822035;29;20054;-69
2023/08/14 14:44:51;;;;;;;4.43;2.05;;;26.10;99.90;;;;;;4824132;29;20045;-66
2023/08/14 14:47:18;;;;;;;5.63;1.60;;;25.90;99.90;;;;;;4828506;29;20046;-67
2023/08/14 14:49:45;;;;;;;1.67;1.13;;;25.90;99.90;;;;;;4827618;29;20103;-74
2023/08/14 14:52:12;;;;;;;1.98;1.40;;;25.60;99.90;;;;;;4828888;29;20050;-66
2023/08/14 14:54:39;;;;;;;3.70;1.45;;;25.60;99.90;;;;;;4828309;29;20503;-65
2023/08/14 14:57:06;;;;;;;2.53;1.33;;;25.60;99.90;;;;;;4828903;29;20102;-71
2023/08/14 14:59:33;;;;;;;5.55;2.10;;;25.80;99.90;;;;;;4828134;29;20132;-66
2023/08/14 15:02:00;;;;;;;4.35;1.20;;;26.00;99.90;;;;;;4826930;29;20057;-69
2023/08/14 15:04:34;;;;;;;3.33;1.60;;;26.00;99.90;;;;;;4829581;29;20464;-69